Hlavní strana
METAR-TAF:

METAR-TAF

Letiště :

Mombasa, Keňa

zeměpisná šířka: 04-02S, zeměpisná délka: 039-37E, výška: 57 m

Aktuální stav počasí

Zpráva byla vytvořena před 1 hodinou a 31 minutami, v 12:00 UTC
Jihojihovýchodní vítr 18 kt
Teplota 25°C
Vlhkost vzduchu 57%
Tlak
Viditelnost 10 km a více
Oblačno až skoro zataženo ve výšce 2500 ft

METAR: HKMO 171200Z 15018KT 9999 BKN025 25/16

Čas: 16:31 (13:31 UTC)

Předpověď počasí

Zpráva byla vytvořena před 2 hodinami a 31 minutami, v 11:00 UTC
Předpověď platná od 17 v 12 UTC do 18 v 18 UTC
Jihojihovýchodní vítr 10 kt
Viditelnost 10 km a více
Oblačno až skoro zataženo ve výšce 2500 ft
Změna
od 17 v 18 UTC do 17 v 21 UTC
Jihojihozápadní vítr 5 kt
Skoro jasno ve výšce 2200 ft
Změna
od 18 v 00 UTC do 18 v 06 UTC
Polojasno ve výšce 2000 ft
Změna
od 18 v 09 UTC do 18 v 12 UTC
Jihojihovýchodní vítr 10 kt
Polojasno ve výšce 2500 ft

TAF: HKMO 171100Z 1712/1818 16010KT 9999 BKN025 BECMG 1718/1721 21005KT FEW022 BECMG 1800/1806 SCT020 BECMG 1809/1812 16010KT SCT025

Stav a předpovědi počasí z více než 4 000 letišť (zprávy METAR a TAF).

Červené a žluté tečky na mapě představují dostupné meteorologické stanice.

Když kurzor umístíte na tečku, zobrazí se název stanice.

Pak kliknutím zobrazíte stav a předpověď počasí.

Chcete-li změnit mapu, kliknutím na zelené tlačítko se znaménkem +mapu přiblížíte, kliknutím na zelené tlačítko se znaménkem – mapu oddálíte a kliknutím na zelené šipky přejdete na sousední mapy.


METAR-TAF: